Aviation Digital Data Service (ADDS)

Output produced by METARs form (1231 UTC 17 September 2019)
found at http://www.aviationweather.gov/metar/data/
 
Forecast for: LFPO (PARIS/ORLY , FR)
Text: TAF LFPO 171100Z 1712/1818 02010KT 9999 BKN035
Forecast period: 1200 to 1400 UTC 17 September 2019
Forecast type: FROM: standard forecast or significant change
Winds: from the NNE (20 degrees) at 12 MPH (10 knots; 5.1 m/s)
Visibility: 6 or more miles 10+ km)
Ceiling: 3500 feet AGL
Clouds: broken clouds at 3500 feet AGL
Weather: no significant weather forecast for this period
Text: BECMG 1714/1716 CAVOK
Forecast period: 1400 UTC 17 September 2019 to 1800 UTC 18 September 2019
Forecast type: BECOMING: Conditions expected to become as follows by 1600 UTC 17 September 2019
Winds: from the NNE (20 degrees) at 12 MPH (10 knots; 5.1 m/s)
Visibility: 6 or more miles 10+ km)
Ceiling: unknown
Clouds: missing
Weather: NSW  (no significant weather)